createdAt,value
2018-06-16T00:00:14.302Z,17.64
2018-06-16T00:02:43.266Z,17.62
2018-06-16T00:05:11.675Z,17.60
2018-06-16T00:07:40.051Z,17.60
2018-06-16T00:10:08.458Z,17.59
2018-06-16T00:12:36.875Z,17.58
2018-06-16T00:15:05.315Z,17.57
2018-06-16T00:17:33.702Z,17.56
2018-06-16T00:20:02.115Z,17.54
2018-06-16T00:22:30.492Z,17.54
2018-06-16T00:25:00.858Z,17.55
2018-06-16T00:27:30.236Z,17.55
2018-06-16T00:29:58.700Z,17.58
2018-06-16T00:32:27.194Z,17.60
2018-06-16T00:34:55.670Z,17.61
2018-06-16T00:37:24.474Z,17.63
2018-06-16T00:39:53.053Z,17.65
2018-06-16T00:42:21.466Z,17.68
2018-06-16T00:44:49.882Z,17.70
2018-06-16T00:47:18.467Z,17.74
2018-06-16T00:49:46.861Z,17.78
2018-06-16T00:52:15.238Z,17.81
2018-06-16T00:54:43.632Z,17.84
2018-06-16T00:57:23.386Z,17.87
2018-06-16T00:59:51.806Z,17.89
2018-06-16T01:02:20.186Z,17.92
2018-06-16T01:04:48.614Z,17.97
2018-06-16T01:07:16.998Z,17.99
2018-06-16T01:09:45.635Z,18.02
2018-06-16T01:12:14.166Z,18.04
2018-06-16T01:14:42.562Z,18.03
2018-06-16T01:17:10.982Z,18.04
2018-06-16T01:19:39.362Z,18.04
2018-06-16T01:22:07.787Z,18.02
2018-06-16T01:24:36.160Z,18.01
2018-06-16T01:27:04.711Z,17.99
2018-06-16T01:29:33.110Z,17.99
2018-06-16T01:32:01.849Z,17.98
2018-06-16T01:34:30.406Z,17.98
2018-06-16T01:36:58.913Z,17.98
2018-06-16T01:39:27.291Z,17.99
2018-06-16T01:41:55.727Z,18.01
2018-06-16T01:44:24.106Z,18.01
2018-06-16T01:46:52.509Z,18.03
2018-06-16T01:49:20.886Z,18.01
2018-06-16T01:51:49.290Z,18.00
2018-06-16T01:54:17.666Z,17.99
2018-06-16T01:56:46.354Z,17.95
2018-06-16T01:59:14.730Z,17.92
2018-06-16T02:01:43.417Z,17.90
2018-06-16T02:04:12.084Z,17.88
2018-06-16T02:06:40.998Z,17.86
2018-06-16T02:09:11.090Z,17.83
2018-06-16T02:11:39.694Z,17.79
2018-06-16T02:14:08.783Z,17.77
2018-06-16T02:16:37.178Z,17.75
2018-06-16T02:19:05.551Z,17.74
2018-06-16T02:21:33.963Z,17.73
2018-06-16T02:24:02.334Z,17.72
2018-06-16T02:26:30.743Z,17.72
2018-06-16T02:28:59.118Z,17.70
2018-06-16T02:31:27.543Z,17.66
2018-06-16T02:33:55.891Z,17.63
2018-06-16T02:36:24.386Z,17.57
2018-06-16T02:38:52.810Z,17.52
2018-06-16T02:41:21.199Z,17.45
2018-06-16T02:43:49.599Z,17.39
2018-06-16T02:46:17.975Z,17.26
2018-06-16T02:48:46.378Z,17.10
2018-06-16T02:51:14.759Z,16.96
2018-06-16T02:53:43.159Z,16.82
2018-06-16T02:56:11.535Z,16.71
2018-06-16T02:58:39.943Z,16.61
2018-06-16T03:01:08.315Z,16.55
2018-06-16T03:03:36.714Z,16.51
2018-06-16T03:06:05.100Z,16.47
2018-06-16T03:08:33.519Z,16.47
2018-06-16T03:11:01.890Z,16.46
2018-06-16T03:13:30.318Z,16.45
2018-06-16T03:15:58.699Z,16.47
2018-06-16T03:18:27.114Z,16.48
2018-06-16T03:20:55.571Z,16.48
2018-06-16T03:23:24.006Z,16.50
2018-06-16T03:25:52.370Z,16.55
2018-06-16T03:28:20.777Z,16.57
2018-06-16T03:30:49.160Z,16.60
2018-06-16T03:33:17.566Z,16.66
2018-06-16T03:35:45.939Z,16.68
2018-06-16T03:38:14.329Z,16.72
2018-06-16T03:40:42.702Z,16.74
2018-06-16T03:43:11.114Z,16.77
2018-06-16T03:45:39.726Z,16.80
2018-06-16T03:48:08.143Z,16.83
2018-06-16T03:50:36.510Z,16.87
2018-06-16T03:53:05.028Z,16.99
2018-06-16T03:55:33.403Z,17.15
2018-06-16T03:58:01.782Z,17.34
2018-06-16T04:00:30.199Z,17.56
2018-06-16T04:02:58.566Z,17.78
2018-06-16T04:05:27.094Z,18.03
2018-06-16T04:07:55.471Z,18.29
2018-06-16T04:10:23.873Z,18.54
2018-06-16T04:12:52.266Z,18.75
2018-06-16T04:15:20.668Z,18.96
2018-06-16T04:17:49.033Z,19.10
2018-06-16T04:20:17.438Z,19.19
2018-06-16T04:22:45.826Z,19.30
2018-06-16T04:25:14.226Z,19.43
2018-06-16T04:27:42.610Z,19.57
2018-06-16T04:30:11.144Z,19.69
2018-06-16T04:32:39.565Z,19.82
2018-06-16T04:35:07.983Z,19.82
2018-06-16T04:37:36.363Z,19.93
2018-06-16T04:40:04.786Z,20.05
2018-06-16T04:42:33.159Z,20.17
2018-06-16T04:45:01.564Z,20.29
2018-06-16T04:47:29.944Z,20.40
2018-06-16T04:49:58.345Z,20.49
2018-06-16T04:52:26.767Z,20.56
2018-06-16T04:54:55.167Z,20.60
2018-06-16T04:57:23.553Z,20.62
2018-06-16T04:59:51.941Z,20.69
2018-06-16T05:02:20.313Z,20.76
2018-06-16T05:04:48.726Z,20.81
2018-06-16T05:07:17.130Z,20.86
2018-06-16T05:09:45.605Z,20.97
2018-06-16T05:12:14.126Z,21.07
2018-06-16T05:14:42.558Z,21.19
2018-06-16T05:17:10.955Z,21.29
2018-06-16T05:19:39.478Z,21.34
2018-06-16T05:22:07.881Z,21.34
2018-06-16T05:24:36.332Z,21.34
2018-06-16T05:27:04.738Z,21.34
2018-06-16T05:29:33.351Z,21.34
2018-06-16T05:32:01.751Z,21.32
2018-06-16T05:34:30.126Z,21.30
2018-06-16T05:36:58.618Z,21.29
2018-06-16T05:39:26.998Z,21.22
2018-06-16T05:41:55.398Z,21.13
2018-06-16T05:44:23.775Z,21.04
2018-06-16T05:46:52.178Z,20.97
2018-06-16T05:49:20.594Z,20.89
2018-06-16T05:51:49.018Z,20.83
2018-06-16T05:54:17.395Z,20.79
2018-06-16T05:56:45.798Z,20.76
2018-06-16T05:59:14.187Z,20.73
2018-06-16T06:01:42.663Z,20.70
2018-06-16T06:04:11.046Z,20.71
2018-06-16T06:06:39.459Z,20.74
2018-06-16T06:09:09.202Z,20.78
2018-06-16T06:11:37.633Z,20.84
2018-06-16T06:14:06.980Z,20.89
2018-06-16T06:16:35.385Z,20.96
2018-06-16T06:19:03.758Z,21.05
2018-06-16T06:21:32.187Z,21.19
2018-06-16T06:24:00.602Z,21.36
2018-06-16T06:26:29.002Z,21.52
2018-06-16T06:28:57.379Z,21.64
2018-06-16T06:31:25.814Z,21.77
2018-06-16T06:33:54.200Z,21.90
2018-06-16T06:36:22.604Z,22.04
2018-06-16T06:38:51.091Z,22.13
2018-06-16T06:41:19.670Z,22.27
2018-06-16T06:43:48.070Z,22.41
2018-06-16T06:46:16.442Z,22.54
2018-06-16T06:48:44.846Z,22.68
2018-06-16T06:51:13.233Z,22.81
2018-06-16T06:53:41.638Z,22.93
2018-06-16T06:56:10.155Z,23.04
2018-06-16T06:58:38.659Z,23.07
2018-06-16T07:01:07.038Z,23.15
2018-06-16T07:03:35.439Z,23.24
2018-06-16T07:06:03.819Z,23.34
2018-06-16T07:08:32.223Z,23.43
2018-06-16T07:11:00.603Z,23.51
2018-06-16T07:13:29.245Z,23.60
2018-06-16T07:15:57.625Z,23.69
2018-06-16T07:18:26.031Z,23.78
2018-06-16T07:20:54.942Z,23.88
2018-06-16T07:23:23.462Z,23.97
2018-06-16T07:25:51.853Z,24.04
2018-06-16T07:28:20.406Z,24.10
2018-06-16T07:30:48.901Z,24.18
2018-06-16T07:33:17.307Z,24.27
2018-06-16T07:35:45.726Z,24.35
2018-06-16T07:38:14.147Z,24.41
2018-06-16T07:40:42.518Z,24.44
2018-06-16T07:43:10.959Z,24.50
2018-06-16T07:45:39.341Z,24.57
2018-06-16T07:48:07.798Z,24.64
2018-06-16T07:50:36.178Z,24.69
2018-06-16T07:53:04.587Z,24.75
2018-06-16T07:55:33.130Z,24.81
2018-06-16T07:58:01.535Z,24.89
2018-06-16T08:00:29.931Z,24.95
2018-06-16T08:02:58.691Z,25.02
2018-06-16T08:05:27.074Z,25.08
2018-06-16T08:07:55.451Z,25.12
2018-06-16T08:10:24.010Z,25.18
2018-06-16T08:12:52.574Z,25.26
2018-06-16T08:15:20.941Z,25.34
2018-06-16T08:17:49.313Z,25.40
2018-06-16T08:20:17.834Z,25.44
2018-06-16T08:22:46.482Z,25.53
2018-06-16T08:25:14.882Z,25.63
2018-06-16T08:27:43.254Z,25.76
2018-06-16T08:30:11.662Z,25.89
2018-06-16T08:32:40.055Z,25.91
2018-06-16T08:35:08.469Z,25.97
2018-06-16T08:37:36.867Z,26.06
2018-06-16T08:40:05.363Z,26.23
2018-06-16T08:42:33.798Z,26.35
2018-06-16T08:45:02.203Z,26.42
2018-06-16T08:47:30.574Z,26.49
2018-06-16T08:49:58.979Z,26.55
2018-06-16T08:52:27.353Z,26.62
2018-06-16T08:54:55.962Z,26.69
2018-06-16T08:57:24.333Z,26.88
2018-06-16T08:59:52.808Z,27.02
2018-06-16T09:02:21.183Z,27.05
2018-06-16T09:04:49.586Z,26.98
2018-06-16T09:07:17.971Z,26.91
2018-06-16T09:09:46.454Z,26.87
2018-06-16T09:12:14.907Z,26.83
2018-06-16T09:14:43.401Z,26.79
2018-06-16T09:17:11.843Z,26.72
2018-06-16T09:19:40.246Z,26.69
2018-06-16T09:22:08.623Z,26.65
2018-06-16T09:24:37.018Z,26.62
2018-06-16T09:27:05.762Z,26.66
2018-06-16T09:29:34.139Z,26.70
2018-06-16T09:32:02.538Z,26.79
2018-06-16T09:34:30.921Z,26.78
2018-06-16T09:36:59.318Z,26.78
2018-06-16T09:39:27.690Z,26.82
2018-06-16T09:41:56.090Z,26.84
2018-06-16T09:44:24.466Z,26.87
2018-06-16T09:46:52.874Z,26.91
2018-06-16T09:49:21.517Z,26.91
2018-06-16T09:51:50.080Z,26.91
2018-06-16T09:54:18.451Z,27.03
2018-06-16T09:56:46.907Z,27.14
2018-06-16T09:59:15.288Z,27.32
2018-06-16T10:01:43.686Z,27.51
2018-06-16T10:04:12.078Z,27.72
2018-06-16T10:06:40.499Z,27.95
2018-06-16T10:09:09.571Z,28.14
2018-06-16T10:11:37.974Z,28.19
2018-06-16T10:14:06.434Z,28.21
2018-06-16T10:16:34.830Z,28.14
2018-06-16T10:19:03.210Z,28.09
2018-06-16T10:21:31.623Z,28.08
2018-06-16T10:23:59.990Z,28.09
2018-06-16T10:26:28.386Z,28.11
2018-06-16T10:28:56.813Z,28.12
2018-06-16T10:31:25.177Z,28.17
2018-06-16T10:33:53.647Z,28.20
2018-06-16T10:36:22.086Z,28.25
2018-06-16T10:38:50.442Z,28.28
2018-06-16T10:41:18.858Z,28.32
2018-06-16T10:43:47.235Z,28.33
2018-06-16T10:46:15.610Z,28.37
2018-06-16T10:48:44.020Z,28.40
2018-06-16T10:51:12.395Z,28.48
2018-06-16T10:53:40.797Z,28.50
2018-06-16T10:56:09.170Z,28.54
2018-06-16T10:58:37.598Z,28.53
2018-06-16T11:01:06.028Z,28.59
2018-06-16T11:03:34.426Z,28.67
2018-06-16T11:06:02.811Z,28.75
2018-06-16T11:08:31.215Z,28.81
2018-06-16T11:10:59.595Z,28.86
2018-06-16T11:13:28.027Z,28.91
2018-06-16T11:15:56.470Z,28.96
2018-06-16T11:18:24.861Z,29.03
2018-06-16T11:20:53.230Z,29.06
2018-06-16T11:23:21.635Z,29.14
2018-06-16T11:25:50.006Z,29.30
2018-06-16T11:28:18.452Z,29.40
2018-06-16T11:30:46.818Z,29.53
2018-06-16T11:33:15.210Z,29.64
2018-06-16T11:35:43.591Z,29.71
2018-06-16T11:38:11.990Z,29.78
2018-06-16T11:40:40.362Z,29.78
2018-06-16T11:43:08.786Z,29.76
2018-06-16T11:45:37.165Z,29.79
2018-06-16T11:48:05.730Z,29.82
2018-06-16T11:50:34.446Z,29.82
2018-06-16T11:53:02.850Z,29.86
2018-06-16T11:55:31.223Z,29.87
2018-06-16T11:57:59.632Z,29.85
2018-06-16T12:00:28.033Z,29.85
2018-06-16T12:02:56.450Z,29.85
2018-06-16T12:05:24.818Z,29.85
2018-06-16T12:07:53.198Z,29.78
2018-06-16T12:10:21.627Z,29.67
2018-06-16T12:12:50.022Z,29.54
2018-06-16T12:15:18.427Z,29.42
2018-06-16T12:17:46.803Z,29.31
2018-06-16T12:20:15.194Z,29.15
2018-06-16T12:22:43.566Z,29.05
2018-06-16T12:25:11.962Z,28.97
2018-06-16T12:27:40.335Z,28.92
2018-06-16T12:30:08.770Z,28.85
2018-06-16T12:32:37.159Z,28.83
2018-06-16T12:35:05.591Z,28.82
2018-06-16T12:37:33.999Z,28.83
2018-06-16T12:40:02.414Z,28.85
2018-06-16T12:42:30.806Z,28.92
2018-06-16T12:44:59.430Z,28.99
2018-06-16T12:47:27.810Z,29.04
2018-06-16T12:49:56.202Z,29.09
2018-06-16T12:52:24.578Z,29.16
2018-06-16T12:54:53.123Z,29.21
2018-06-16T12:57:21.530Z,29.26
2018-06-16T12:59:51.551Z,29.36
2018-06-16T13:02:19.942Z,29.47
2018-06-16T13:04:48.347Z,29.54
2018-06-16T13:07:16.719Z,29.59
2018-06-16T13:09:45.138Z,29.57
2018-06-16T13:12:13.550Z,29.55
2018-06-16T13:14:41.974Z,29.54
2018-06-16T13:17:10.349Z,29.58
2018-06-16T13:19:38.750Z,29.61
2018-06-16T13:22:07.129Z,29.57
2018-06-16T13:24:35.539Z,29.57
2018-06-16T13:27:03.915Z,29.60
2018-06-16T13:29:32.296Z,29.51
2018-06-16T13:32:00.698Z,29.57
2018-06-16T13:34:29.506Z,29.62
2018-06-16T13:36:57.910Z,29.65
2018-06-16T13:39:26.278Z,29.74
2018-06-16T13:41:54.693Z,29.81
2018-06-16T13:44:23.078Z,29.82
2018-06-16T13:46:51.487Z,29.85
2018-06-16T13:49:19.871Z,29.92
2018-06-16T13:51:48.262Z,29.91
2018-06-16T13:54:16.646Z,29.83
2018-06-16T13:56:45.070Z,29.77
2018-06-16T13:59:13.455Z,29.72
2018-06-16T14:01:41.884Z,29.69
2018-06-16T14:04:10.255Z,29.67
2018-06-16T14:06:38.665Z,29.66
2018-06-16T14:09:08.599Z,29.65
2018-06-16T14:11:37.006Z,29.66
2018-06-16T14:14:05.426Z,29.68
2018-06-16T14:16:34.958Z,29.68
2018-06-16T14:19:03.321Z,29.68
2018-06-16T14:21:31.727Z,29.72
2018-06-16T14:24:00.102Z,29.76
2018-06-16T14:26:28.531Z,29.78
2018-06-16T14:28:56.931Z,29.74
2018-06-16T14:31:25.338Z,29.68
2018-06-16T14:33:53.710Z,29.64
2018-06-16T14:36:22.115Z,29.59
2018-06-16T14:38:50.494Z,29.54
2018-06-16T14:41:18.894Z,29.46
2018-06-16T14:43:47.264Z,29.38
2018-06-16T14:46:15.670Z,29.32
2018-06-16T14:48:44.082Z,29.28
2018-06-16T14:51:12.450Z,29.27
2018-06-16T14:53:40.855Z,29.26
2018-06-16T14:56:09.251Z,29.31
2018-06-16T14:58:37.658Z,29.33
2018-06-16T15:01:06.262Z,29.38
2018-06-16T15:03:34.660Z,29.38
2018-06-16T15:06:03.041Z,29.42
2018-06-16T15:08:31.451Z,29.45
2018-06-16T15:10:59.827Z,29.49
2018-06-16T15:13:28.254Z,29.47
2018-06-16T15:15:56.639Z,29.46
2018-06-16T15:18:25.048Z,29.44
2018-06-16T15:20:53.498Z,29.41
2018-06-16T15:23:22.612Z,29.37
2018-06-16T15:25:50.989Z,29.29
2018-06-16T15:28:19.399Z,29.20
2018-06-16T15:30:47.791Z,29.17
2018-06-16T15:33:16.199Z,29.15
2018-06-16T15:35:44.577Z,29.15
2018-06-16T15:38:12.990Z,29.17
2018-06-16T15:40:41.358Z,29.19
2018-06-16T15:43:09.771Z,29.24
2018-06-16T15:45:38.155Z,29.34
2018-06-16T15:48:06.779Z,29.41
2018-06-16T15:50:35.150Z,29.51
2018-06-16T15:53:03.551Z,29.64
2018-06-16T15:55:31.930Z,29.75
2018-06-16T15:58:00.339Z,29.75
2018-06-16T16:00:28.711Z,29.73
2018-06-16T16:02:57.107Z,29.74
2018-06-16T16:05:25.498Z,29.74
2018-06-16T16:07:53.934Z,29.70
2018-06-16T16:10:22.318Z,29.65
2018-06-16T16:12:50.795Z,29.59
2018-06-16T16:15:19.205Z,29.56
2018-06-16T16:17:47.577Z,29.51
2018-06-16T16:20:15.975Z,29.46
2018-06-16T16:22:44.388Z,29.43
2018-06-16T16:25:12.797Z,29.39
2018-06-16T16:27:41.522Z,29.34
2018-06-16T16:30:09.923Z,29.30
2018-06-16T16:32:38.378Z,29.25
2018-06-16T16:35:06.898Z,29.17
2018-06-16T16:37:35.490Z,29.09
2018-06-16T16:40:03.967Z,29.09
2018-06-16T16:42:32.347Z,29.12
2018-06-16T16:45:00.743Z,29.10
2018-06-16T16:47:29.114Z,29.05
2018-06-16T16:49:57.513Z,28.99
2018-06-16T16:52:25.889Z,28.93
2018-06-16T16:54:54.783Z,28.84
2018-06-16T16:57:23.162Z,28.76
2018-06-16T16:59:51.602Z,28.71
2018-06-16T17:02:19.970Z,28.61
2018-06-16T17:04:48.367Z,28.51
2018-06-16T17:07:16.743Z,28.41
2018-06-16T17:09:45.151Z,28.34
2018-06-16T17:12:13.532Z,28.26
2018-06-16T17:14:41.960Z,28.17
2018-06-16T17:17:10.335Z,28.08
2018-06-16T17:19:38.731Z,27.96
2018-06-16T17:22:07.098Z,27.87
2018-06-16T17:24:35.609Z,27.83
2018-06-16T17:27:03.986Z,27.82
2018-06-16T17:29:32.404Z,27.80
2018-06-16T17:32:00.779Z,27.77
2018-06-16T17:34:29.168Z,27.74
2018-06-16T17:36:57.571Z,27.69
2018-06-16T17:39:25.946Z,27.64
2018-06-16T17:41:54.346Z,27.57
2018-06-16T17:44:22.722Z,27.51
2018-06-16T17:46:51.122Z,27.47
2018-06-16T17:49:19.499Z,27.42
2018-06-16T17:51:47.894Z,27.36
2018-06-16T17:54:16.266Z,27.30
2018-06-16T17:56:44.664Z,27.27
2018-06-16T17:59:13.062Z,27.21
2018-06-16T18:01:41.459Z,27.15
2018-06-16T18:04:09.838Z,27.09
2018-06-16T18:06:38.243Z,27.06
2018-06-16T18:09:09.287Z,27.02
2018-06-16T18:11:37.873Z,26.99
2018-06-16T18:14:06.462Z,26.93
2018-06-16T18:16:34.871Z,26.89
2018-06-16T18:19:03.257Z,26.83
2018-06-16T18:21:31.938Z,26.76
2018-06-16T18:24:00.437Z,26.67
2018-06-16T18:26:28.839Z,26.62
2018-06-16T18:28:57.215Z,26.55
2018-06-16T18:31:25.618Z,26.49
2018-06-16T18:33:54.066Z,26.44
2018-06-16T18:36:22.475Z,26.39
2018-06-16T18:38:50.854Z,26.33
2018-06-16T18:41:19.262Z,26.29
2018-06-16T18:43:47.634Z,26.22
2018-06-16T18:46:16.026Z,26.17
2018-06-16T18:48:44.495Z,26.13
2018-06-16T18:51:12.903Z,26.08
2018-06-16T18:53:41.282Z,26.04
2018-06-16T18:56:09.705Z,25.99
2018-06-16T18:58:38.092Z,25.92
2018-06-16T19:01:06.538Z,25.86
2018-06-16T19:03:34.950Z,25.81
2018-06-16T19:06:03.335Z,25.75
2018-06-16T19:08:31.730Z,25.68
2018-06-16T19:11:00.125Z,25.59
2018-06-16T19:13:28.546Z,25.51
2018-06-16T19:15:56.927Z,25.43
2018-06-16T19:18:25.401Z,25.36
2018-06-16T19:20:53.740Z,25.30
2018-06-16T19:23:22.149Z,25.24
2018-06-16T19:25:50.518Z,25.17
2018-06-16T19:28:18.923Z,25.11
2018-06-16T19:30:47.295Z,25.05
2018-06-16T19:33:15.694Z,24.99
2018-06-16T19:35:44.063Z,24.93
2018-06-16T19:38:12.539Z,24.88
2018-06-16T19:40:40.931Z,24.84
2018-06-16T19:43:09.401Z,24.78
2018-06-16T19:45:37.869Z,24.72
2018-06-16T19:48:06.288Z,24.65
2018-06-16T19:50:34.684Z,24.57
2018-06-16T19:53:03.089Z,24.50
2018-06-16T19:55:31.471Z,24.44
2018-06-16T19:57:59.883Z,24.38
2018-06-16T20:00:28.375Z,24.31
2018-06-16T20:02:56.767Z,24.25
2018-06-16T20:05:25.147Z,24.18
2018-06-16T20:07:53.803Z,24.10
2018-06-16T20:10:22.234Z,24.03
2018-06-16T20:12:50.671Z,23.94
2018-06-16T20:15:19.050Z,23.86
2018-06-16T20:17:47.495Z,23.78
2018-06-16T20:20:15.871Z,23.71
2018-06-16T20:22:44.256Z,23.65
2018-06-16T20:25:12.707Z,23.60
2018-06-16T20:27:41.158Z,23.56
2018-06-16T20:30:09.558Z,23.50
2018-06-16T20:32:37.950Z,23.46
2018-06-16T20:35:06.350Z,23.41
2018-06-16T20:37:34.795Z,23.36
2018-06-16T20:40:03.199Z,23.33
2018-06-16T20:42:31.570Z,23.27
2018-06-16T20:44:59.978Z,23.23
2018-06-16T20:47:28.360Z,23.19
2018-06-16T20:49:56.758Z,23.14
2018-06-16T20:52:25.127Z,23.05
2018-06-16T20:54:53.752Z,23.00
2018-06-16T20:57:22.177Z,22.94
2018-06-16T20:59:50.611Z,22.89
2018-06-16T21:02:18.979Z,22.82
2018-06-16T21:04:47.390Z,22.76
2018-06-16T21:07:15.767Z,22.70
2018-06-16T21:09:44.232Z,22.64
2018-06-16T21:12:12.583Z,22.57
2018-06-16T21:14:41.022Z,22.52
2018-06-16T21:17:09.390Z,22.47
2018-06-16T21:19:37.794Z,22.41
2018-06-16T21:22:06.746Z,22.38
2018-06-16T21:24:35.154Z,22.33
2018-06-16T21:27:03.535Z,22.31
2018-06-16T21:29:31.943Z,22.27
2018-06-16T21:32:00.318Z,22.23
2018-06-16T21:34:28.722Z,22.16
2018-06-16T21:36:57.118Z,22.09
2018-06-16T21:39:25.502Z,22.03
2018-06-16T21:41:53.903Z,21.96
2018-06-16T21:44:22.281Z,21.92
2018-06-16T21:46:50.695Z,21.89
2018-06-16T21:51:43.330Z,21.81
2018-06-16T21:54:11.715Z,21.74
2018-06-16T21:56:40.144Z,21.68
2018-06-16T21:59:08.529Z,21.63
2018-06-16T22:01:37.735Z,21.56
2018-06-16T22:04:06.872Z,21.50
2018-06-16T22:06:35.530Z,21.45
2018-06-16T22:09:05.954Z,21.36
2018-06-16T22:11:34.367Z,21.29
2018-06-16T22:14:02.780Z,21.23
2018-06-16T22:16:31.190Z,21.17
2018-06-16T22:18:59.586Z,21.08
2018-06-16T22:21:27.999Z,21.05
2018-06-16T22:23:56.393Z,20.99
2018-06-16T22:26:24.795Z,20.97
2018-06-16T22:28:53.174Z,20.92
2018-06-16T22:31:21.622Z,20.88
2018-06-16T22:33:50.035Z,20.85
2018-06-16T22:36:18.439Z,20.81
2018-06-16T22:38:46.819Z,20.80
2018-06-16T22:41:15.230Z,20.76
2018-06-16T22:43:43.610Z,20.74
2018-06-16T22:46:12.026Z,20.71
2018-06-16T22:48:40.406Z,20.66
2018-06-16T22:51:08.806Z,20.62
2018-06-16T22:53:37.185Z,20.61
2018-06-16T22:56:05.786Z,20.58
2018-06-16T22:58:34.171Z,20.57
2018-06-16T23:01:02.551Z,20.54
2018-06-16T23:03:30.963Z,20.51
2018-06-16T23:05:59.347Z,20.47
2018-06-16T23:08:27.751Z,20.44
2018-06-16T23:10:56.132Z,20.42
2018-06-16T23:13:24.562Z,20.39
2018-06-16T23:15:52.983Z,20.34
2018-06-16T23:18:21.387Z,20.25
2018-06-16T23:20:49.773Z,20.18
2018-06-16T23:23:18.175Z,20.10
2018-06-16T23:25:46.550Z,20.03
2018-06-16T23:28:14.957Z,19.99
2018-06-16T23:30:43.333Z,19.96
2018-06-16T23:33:11.743Z,19.91
2018-06-16T23:35:40.123Z,19.87
2018-06-16T23:38:08.542Z,19.82
2018-06-16T23:40:36.933Z,19.76
2018-06-16T23:43:05.347Z,19.73
2018-06-16T23:45:33.723Z,19.70
2018-06-16T23:48:02.127Z,19.69
2018-06-16T23:50:30.501Z,19.68
2018-06-16T23:52:58.903Z,19.68
2018-06-16T23:55:27.280Z,19.68
2018-06-16T23:57:55.686Z,19.65
